sensor_id;sensor_type;location;lat;lon;timestamp;pressure;altitude;pressure_sealevel;temperature;humidity
68859;BME280;55864;49.238;8.092;2023-06-01T00:00:43;99519.28;;;20.94;39.32
68859;BME280;55864;49.238;8.092;2023-06-01T00:02:43;99524.22;;;20.91;39.16
68859;BME280;55864;49.238;8.092;2023-06-01T00:04:45;99523.84;;;20.87;39.77
68859;BME280;55864;49.238;8.092;2023-06-01T00:06:45;99522.38;;;20.85;39.24
68859;BME280;55864;49.238;8.092;2023-06-01T00:08:46;99526.28;;;20.82;40.33
68859;BME280;55864;49.238;8.092;2023-06-01T00:10:46;99517.06;;;21.04;39.21
68859;BME280;55864;49.238;8.092;2023-06-01T00:12:46;99521.66;;;21.61;37.81
68859;BME280;55864;49.238;8.092;2023-06-01T00:14:47;99518.16;;;22.05;37.26
68859;BME280;55864;49.238;8.092;2023-06-01T00:16:47;99515.91;;;22.08;37.04
68859;BME280;55864;49.238;8.092;2023-06-01T00:18:47;99514.09;;;22.02;36.77
68859;BME280;55864;49.238;8.092;2023-06-01T00:20:49;99522.59;;;21.86;36.97
68859;BME280;55864;49.238;8.092;2023-06-01T00:22:49;99511.31;;;21.71;37.86
68859;BME280;55864;49.238;8.092;2023-06-01T00:24:50;99517.97;;;21.56;38.17
68859;BME280;55864;49.238;8.092;2023-06-01T00:26:50;99506.50;;;21.42;38.51
68859;BME280;55864;49.238;8.092;2023-06-01T00:28:50;99516.41;;;21.28;38.48
68859;BME280;55864;49.238;8.092;2023-06-01T00:30:51;99520.94;;;21.15;38.30
68859;BME280;55864;49.238;8.092;2023-06-01T00:32:51;99517.88;;;21.05;39.01
68859;BME280;55864;49.238;8.092;2023-06-01T00:34:52;99512.72;;;20.97;38.90
68859;BME280;55864;49.238;8.092;2023-06-01T00:36:54;99512.94;;;20.89;38.98
68859;BME280;55864;49.238;8.092;2023-06-01T00:38:54;99513.13;;;20.81;38.73
68859;BME280;55864;49.238;8.092;2023-06-01T00:40:55;99517.25;;;20.77;39.71
68859;BME280;55864;49.238;8.092;2023-06-01T00:42:55;99509.88;;;20.72;40.17
68859;BME280;55864;49.238;8.092;2023-06-01T00:44:55;99505.13;;;20.68;39.83
68859;BME280;55864;49.238;8.092;2023-06-01T00:46:56;99512.53;;;20.66;39.85
68859;BME280;55864;49.238;8.092;2023-06-01T00:48:56;99511.28;;;20.61;39.79
68859;BME280;55864;49.238;8.092;2023-06-01T00:50:57;99511.50;;;20.60;40.34
68859;BME280;55864;49.238;8.092;2023-06-01T00:52:59;99507.59;;;20.89;39.90
68859;BME280;55864;49.238;8.092;2023-06-01T00:55:00;99507.72;;;21.39;39.32
68859;BME280;55864;49.238;8.092;2023-06-01T00:57:00;99498.16;;;21.70;37.88
68859;BME280;55864;49.238;8.092;2023-06-01T00:59:01;99506.97;;;21.83;37.86
68859;BME280;55864;49.238;8.092;2023-06-01T01:01:01;99503.28;;;21.78;37.82
68859;BME280;55864;49.238;8.092;2023-06-01T01:03:02;99508.47;;;21.66;38.24
68859;BME280;55864;49.238;8.092;2023-06-01T01:05:02;99501.94;;;21.49;38.50
68859;BME280;55864;49.238;8.092;2023-06-01T01:07:05;99512.28;;;21.32;38.67
68859;BME280;55864;49.238;8.092;2023-06-01T01:09:13;99506.53;;;21.16;38.91
68859;BME280;55864;49.238;8.092;2023-06-01T01:11:15;99506.56;;;21.03;39.42
68859;BME280;55864;49.238;8.092;2023-06-01T01:13:19;99502.25;;;20.89;39.20
68859;BME280;55864;49.238;8.092;2023-06-01T01:15:21;99504.31;;;20.80;39.58
68859;BME280;55864;49.238;8.092;2023-06-01T01:17:26;99505.34;;;20.73;39.71
68859;BME280;55864;49.238;8.092;2023-06-01T01:19:30;99499.38;;;20.64;39.94
68859;BME280;55864;49.238;8.092;2023-06-01T01:21:35;99500.41;;;20.50;40.31
68859;BME280;55864;49.238;8.092;2023-06-01T01:23:43;99500.63;;;20.42;40.63
68859;BME280;55864;49.238;8.092;2023-06-01T01:26:07;99500.59;;;20.35;40.56
68859;BME280;55864;49.238;8.092;2023-06-01T01:28:10;99504.06;;;20.29;40.92
68859;BME280;55864;49.238;8.092;2023-06-01T01:30:15;99510.22;;;20.23;40.98
68859;BME280;55864;49.238;8.092;2023-06-01T01:32:16;99502.19;;;20.17;41.23
68859;BME280;55864;49.238;8.092;2023-06-01T01:34:17;99505.50;;;20.19;41.64
68859;BME280;55864;49.238;8.092;2023-06-01T01:36:19;99502.44;;;20.48;41.15
68859;BME280;55864;49.238;8.092;2023-06-01T01:38:19;99505.94;;;20.75;40.21
68859;BME280;55864;49.238;8.092;2023-06-01T01:40:20;99501.22;;;20.83;39.97
68859;BME280;55864;49.238;8.092;2023-06-01T01:42:21;99509.84;;;20.79;39.78
68859;BME280;55864;49.238;8.092;2023-06-01T01:44:21;99502.88;;;20.71;39.84
68859;BME280;55864;49.238;8.092;2023-06-01T01:46:24;99507.38;;;20.57;39.99
68859;BME280;55864;49.238;8.092;2023-06-01T01:48:30;99503.09;;;20.43;40.35
68859;BME280;55864;49.238;8.092;2023-06-01T01:50:32;99503.47;;;20.34;40.94
68859;BME280;55864;49.238;8.092;2023-06-01T01:52:37;99500.56;;;20.29;40.94
68859;BME280;55864;49.238;8.092;2023-06-01T01:54:40;99499.75;;;20.22;41.10
68859;BME280;55864;49.238;8.092;2023-06-01T01:56:41;99494.41;;;20.15;41.02
68859;BME280;55864;49.238;8.092;2023-06-01T01:58:42;99498.06;;;20.08;41.23
68859;BME280;55864;49.238;8.092;2023-06-01T02:00:43;99490.66;;;20.03;41.58
68859;BME280;55864;49.238;8.092;2023-06-01T02:02:46;99492.28;;;19.98;41.55
68859;BME280;55864;49.238;8.092;2023-06-01T02:04:46;99488.78;;;19.91;41.71
68859;BME280;55864;49.238;8.092;2023-06-01T02:06:47;99485.88;;;19.86;41.88
68859;BME280;55864;49.238;8.092;2023-06-01T02:08:47;99496.13;;;19.82;42.13
68859;BME280;55864;49.238;8.092;2023-06-01T02:10:48;99498.38;;;19.79;42.15
68859;BME280;55864;49.238;8.092;2023-06-01T02:12:48;99501.84;;;19.73;42.48
68859;BME280;55864;49.238;8.092;2023-06-01T02:14:48;99499.13;;;19.59;42.73
68859;BME280;55864;49.238;8.092;2023-06-01T02:16:49;99490.91;;;19.54;42.81
68859;BME280;55864;49.238;8.092;2023-06-01T02:18:51;99485.25;;;19.77;42.83
68859;BME280;55864;49.238;8.092;2023-06-01T02:20:51;99479.41;;;20.14;42.15
68859;BME280;55864;49.238;8.092;2023-06-01T02:22:52;99484.16;;;20.38;41.19
68859;BME280;55864;49.238;8.092;2023-06-01T02:24:52;99486.84;;;20.38;41.25
68859;BME280;55864;49.238;8.092;2023-06-01T02:26:52;99483.97;;;20.27;41.35
68859;BME280;55864;49.238;8.092;2023-06-01T02:28:52;99484.31;;;20.11;41.46
68859;BME280;55864;49.238;8.092;2023-06-01T02:30:54;99487.97;;;19.97;41.82
68859;BME280;55864;49.238;8.092;2023-06-01T02:32:55;99491.63;;;19.83;42.29
68859;BME280;55864;49.238;8.092;2023-06-01T02:34:56;99497.09;;;19.61;42.52
68859;BME280;55864;49.238;8.092;2023-06-01T02:36:57;99498.03;;;19.47;42.79
68859;BME280;55864;49.238;8.092;2023-06-01T02:38:58;99488.34;;;19.33;43.42
68859;BME280;55864;49.238;8.092;2023-06-01T02:40:58;99487.22;;;19.21;43.52
68859;BME280;55864;49.238;8.092;2023-06-01T02:42:59;99492.09;;;19.11;43.71
68859;BME280;55864;49.238;8.092;2023-06-01T02:44:59;99490.84;;;19.07;44.22
68859;BME280;55864;49.238;8.092;2023-06-01T02:47:00;99495.06;;;18.95;44.39
68859;BME280;55864;49.238;8.092;2023-06-01T02:49:00;99488.44;;;18.85;44.67
68859;BME280;55864;49.238;8.092;2023-06-01T02:51:02;99483.25;;;18.76;44.79
68859;BME280;55864;49.238;8.092;2023-06-01T02:53:02;99486.13;;;18.75;44.79
68859;BME280;55864;49.238;8.092;2023-06-01T02:55:03;99480.78;;;18.75;44.91
68859;BME280;55864;49.238;8.092;2023-06-01T02:57:20;99479.13;;;18.74;44.69
68859;BME280;55864;49.238;8.092;2023-06-01T02:59:25;99480.53;;;18.70;44.89
68859;BME280;55864;49.238;8.092;2023-06-01T03:01:31;99484.63;;;18.66;45.30
68859;BME280;55864;49.238;8.092;2023-06-01T03:03:32;99487.03;;;18.61;45.19
68859;BME280;55864;49.238;8.092;2023-06-01T03:05:32;99480.44;;;18.57;45.31
68859;BME280;55864;49.238;8.092;2023-06-01T03:07:53;99490.53;;;18.68;45.34
68859;BME280;55864;49.238;8.092;2023-06-01T03:09:58;99491.28;;;19.11;44.28
68859;BME280;55864;49.238;8.092;2023-06-01T03:12:25;99484.28;;;19.44;43.58
68859;BME280;55864;49.238;8.092;2023-06-01T03:14:25;99481.06;;;19.55;43.53
68859;BME280;55864;49.238;8.092;2023-06-01T03:16:26;99481.66;;;19.50;43.72
68859;BME280;55864;49.238;8.092;2023-06-01T03:18:38;99487.16;;;19.42;43.64
68859;BME280;55864;49.238;8.092;2023-06-01T03:20:38;99481.53;;;19.31;43.99
68859;BME280;55864;49.238;8.092;2023-06-01T03:22:39;99482.72;;;19.22;44.47
68859;BME280;55864;49.238;8.092;2023-06-01T03:24:40;99482.25;;;19.12;44.78
68859;BME280;55864;49.238;8.092;2023-06-01T03:26:41;99481.38;;;18.98;45.07
68859;BME280;55864;49.238;8.092;2023-06-01T03:28:41;99480.81;;;18.82;45.31
68859;BME280;55864;49.238;8.092;2023-06-01T03:30:42;99479.53;;;18.71;45.78
68859;BME280;55864;49.238;8.092;2023-06-01T03:32:43;99479.88;;;18.61;45.69
68859;BME280;55864;49.238;8.092;2023-06-01T03:34:44;99478.16;;;18.54;45.79
68859;BME280;55864;49.238;8.092;2023-06-01T03:36:44;99480.13;;;18.45;46.35
68859;BME280;55864;49.238;8.092;2023-06-01T03:38:44;99483.53;;;18.39;46.41
68859;BME280;55864;49.238;8.092;2023-06-01T03:40:46;99480.81;;;18.33;46.56
68859;BME280;55864;49.238;8.092;2023-06-01T03:42:47;99474.44;;;18.27;46.99
68859;BME280;55864;49.238;8.092;2023-06-01T03:44:48;99485.25;;;18.26;47.00
68859;BME280;55864;49.238;8.092;2023-06-01T03:46:48;99484.19;;;18.20;47.14
68859;BME280;55864;49.238;8.092;2023-06-01T03:48:49;99480.69;;;18.20;46.92
68859;BME280;55864;49.238;8.092;2023-06-01T03:50:49;99488.03;;;18.18;47.16
68859;BME280;55864;49.238;8.092;2023-06-01T03:52:49;99483.66;;;18.10;47.08
68859;BME280;55864;49.238;8.092;2023-06-01T03:54:50;99489.69;;;17.98;47.60
68859;BME280;55864;49.238;8.092;2023-06-01T03:57:11;99491.44;;;17.91;47.39
68859;BME280;55864;49.238;8.092;2023-06-01T03:59:11;99492.56;;;17.81;47.85
68859;BME280;55864;49.238;8.092;2023-06-01T04:01:13;99488.78;;;17.91;48.38
68859;BME280;55864;49.238;8.092;2023-06-01T04:03:14;99496.47;;;18.42;46.91
68859;BME280;55864;49.238;8.092;2023-06-01T04:05:15;99498.34;;;18.97;45.70
68859;BME280;55864;49.238;8.092;2023-06-01T04:07:16;99497.53;;;19.31;44.71
68859;BME280;55864;49.238;8.092;2023-06-01T04:09:16;99494.09;;;19.37;44.40
68859;BME280;55864;49.238;8.092;2023-06-01T04:11:17;99492.59;;;19.28;44.57
68859;BME280;55864;49.238;8.092;2023-06-01T04:13:19;99498.22;;;19.12;44.91
68859;BME280;55864;49.238;8.092;2023-06-01T04:15:21;99497.34;;;18.98;45.34
68859;BME280;55864;49.238;8.092;2023-06-01T04:17:22;99507.88;;;18.85;45.68
68859;BME280;55864;49.238;8.092;2023-06-01T04:19:22;99500.59;;;18.66;45.67
68859;BME280;55864;49.238;8.092;2023-06-01T04:21:27;99507.13;;;18.42;46.35
68859;BME280;55864;49.238;8.092;2023-06-01T04:23:28;99504.31;;;18.29;47.04
68859;BME280;55864;49.238;8.092;2023-06-01T04:25:29;99500.13;;;18.20;47.40
68859;BME280;55864;49.238;8.092;2023-06-01T04:27:29;99503.34;;;18.16;47.58
68859;BME280;55864;49.238;8.092;2023-06-01T04:29:31;99510.50;;;18.15;47.44
68859;BME280;55864;49.238;8.092;2023-06-01T04:31:31;99502.72;;;18.14;47.69
68859;BME280;55864;49.238;8.092;2023-06-01T04:33:32;99513.00;;;18.17;47.79
68859;BME280;55864;49.238;8.092;2023-06-01T04:35:33;99510.94;;;18.19;47.85
68859;BME280;55864;49.238;8.092;2023-06-01T04:37:34;99507.47;;;18.18;48.00
68859;BME280;55864;49.238;8.092;2023-06-01T04:39:34;99513.00;;;18.17;48.08
68859;BME280;55864;49.238;8.092;2023-06-01T04:41:35;99509.69;;;18.15;48.31
68859;BME280;55864;49.238;8.092;2023-06-01T04:43:36;99509.88;;;18.13;48.70
68859;BME280;55864;49.238;8.092;2023-06-01T04:45:38;99514.53;;;18.11;48.90
68859;BME280;55864;49.238;8.092;2023-06-01T04:47:38;99518.03;;;18.12;48.99
68859;BME280;55864;49.238;8.092;2023-06-01T04:49:40;99515.78;;;18.09;49.18
68859;BME280;55864;49.238;8.092;2023-06-01T04:51:40;99512.84;;;18.04;49.00
68859;BME280;55864;49.238;8.092;2023-06-01T04:53:41;99522.84;;;18.02;49.13
68859;BME280;55864;49.238;8.092;2023-06-01T04:55:41;99516.28;;;17.98;49.29
68859;BME280;55864;49.238;8.092;2023-06-01T04:57:42;99524.41;;;17.96;49.61
68859;BME280;55864;49.238;8.092;2023-06-01T04:59:43;99517.47;;;17.95;49.99
68859;BME280;55864;49.238;8.092;2023-06-01T05:01:44;99522.84;;;18.02;50.69
68859;BME280;55864;49.238;8.092;2023-06-01T05:03:45;99512.34;;;18.36;49.53
68859;BME280;55864;49.238;8.092;2023-06-01T05:05:46;99515.75;;;18.44;49.65
68859;BME280;55864;49.238;8.092;2023-06-01T05:07:46;99518.00;;;18.47;49.55
68859;BME280;55864;49.238;8.092;2023-06-01T05:09:46;99517.44;;;18.52;49.69
68859;BME280;55864;49.238;8.092;2023-06-01T05:11:47;99520.94;;;18.52;49.86
68859;BME280;55864;49.238;8.092;2023-06-01T05:13:47;99521.19;;;18.57;48.72
68859;BME280;55864;49.238;8.092;2023-06-01T05:15:48;99518.13;;;18.60;48.49
68859;BME280;55864;49.238;8.092;2023-06-01T05:17:49;99525.31;;;18.60;48.64
68859;BME280;55864;49.238;8.092;2023-06-01T05:19:52;99514.66;;;18.60;48.92
68859;BME280;55864;49.238;8.092;2023-06-01T05:21:53;99524.47;;;18.59;48.63
68859;BME280;55864;49.238;8.092;2023-06-01T05:23:54;99524.47;;;18.59;48.66
68859;BME280;55864;49.238;8.092;2023-06-01T05:25:55;99519.97;;;18.60;48.67
68859;BME280;55864;49.238;8.092;2023-06-01T05:27:55;99525.31;;;18.60;48.74
68859;BME280;55864;49.238;8.092;2023-06-01T05:29:57;99525.94;;;18.62;49.11
68859;BME280;55864;49.238;8.092;2023-06-01T05:31:57;99521.25;;;18.64;48.84
68859;BME280;55864;49.238;8.092;2023-06-01T05:33:59;99525.09;;;18.61;48.83
68859;BME280;55864;49.238;8.092;2023-06-01T05:36:03;99524.06;;;18.62;49.02
68859;BME280;55864;49.238;8.092;2023-06-01T05:38:03;99523.72;;;18.65;48.94
68859;BME280;55864;49.238;8.092;2023-06-01T05:40:04;99520.84;;;18.67;49.03
68859;BME280;55864;49.238;8.092;2023-06-01T05:42:05;99537.44;;;18.69;48.94
68859;BME280;55864;49.238;8.092;2023-06-01T05:44:10;99526.59;;;18.70;48.89
68859;BME280;55864;49.238;8.092;2023-06-01T05:46:10;99524.97;;;18.69;49.08
68859;BME280;55864;49.238;8.092;2023-06-01T05:48:11;99532.97;;;18.69;49.10
68859;BME280;55864;49.238;8.092;2023-06-01T05:50:13;99525.59;;;18.71;49.04
68859;BME280;55864;49.238;8.092;2023-06-01T05:52:13;99525.41;;;18.73;49.22
68859;BME280;55864;49.238;8.092;2023-06-01T05:54:14;99527.03;;;18.74;49.46
68859;BME280;55864;49.238;8.092;2023-06-01T05:56:14;99524.19;;;18.75;49.21
68859;BME280;55864;49.238;8.092;2023-06-01T05:58:15;99522.28;;;19.25;49.25
68859;BME280;55864;49.238;8.092;2023-06-01T06:00:16;99525.13;;;20.05;47.22
68859;BME280;55864;49.238;8.092;2023-06-01T06:02:16;99515.19;;;20.46;45.71
68859;BME280;55864;49.238;8.092;2023-06-01T06:04:17;99518.88;;;20.58;44.77
68859;BME280;55864;49.238;8.092;2023-06-01T06:06:19;99517.66;;;20.54;44.83
68859;BME280;55864;49.238;8.092;2023-06-01T06:08:19;99521.34;;;20.40;45.07
68859;BME280;55864;49.238;8.092;2023-06-01T06:10:19;99518.47;;;20.28;45.39
68859;BME280;55864;49.238;8.092;2023-06-01T06:12:19;99523.75;;;20.15;45.57
68859;BME280;55864;49.238;8.092;2023-06-01T06:14:20;99515.50;;;20.04;45.72
68859;BME280;55864;49.238;8.092;2023-06-01T06:16:20;99527.97;;;19.90;45.86
68859;BME280;55864;49.238;8.092;2023-06-01T06:18:21;99527.31;;;19.82;45.95
68859;BME280;55864;49.238;8.092;2023-06-01T06:20:21;99527.50;;;19.74;46.28
68859;BME280;55864;49.238;8.092;2023-06-01T06:22:23;99521.13;;;19.68;46.45
68859;BME280;55864;49.238;8.092;2023-06-01T06:24:23;99529.50;;;19.65;46.62
68859;BME280;55864;49.238;8.092;2023-06-01T06:26:23;99527.03;;;19.63;46.64
68859;BME280;55864;49.238;8.092;2023-06-01T06:28:24;99529.06;;;19.61;46.65
68859;BME280;55864;49.238;8.092;2023-06-01T06:30:24;99530.50;;;19.57;46.28
68859;BME280;55864;49.238;8.092;2023-06-01T06:32:24;99528.66;;;19.58;46.49
68859;BME280;55864;49.238;8.092;2023-06-01T06:34:25;99527.81;;;19.57;46.77
68859;BME280;55864;49.238;8.092;2023-06-01T06:36:25;99534.81;;;19.58;46.49
68859;BME280;55864;49.238;8.092;2023-06-01T06:38:27;99527.81;;;19.57;46.58
68859;BME280;55864;49.238;8.092;2023-06-01T06:40:27;99530.09;;;19.60;46.83
68859;BME280;55864;49.238;8.092;2023-06-01T06:42:27;99526.81;;;19.58;46.65
68859;BME280;55864;49.238;8.092;2023-06-01T06:44:28;99530.97;;;19.74;47.10
68859;BME280;55864;49.238;8.092;2023-06-01T06:46:28;99526.88;;;20.38;45.80
68859;BME280;55864;49.238;8.092;2023-06-01T06:48:28;99524.66;;;21.01;44.03
68859;BME280;55864;49.238;8.092;2023-06-01T06:50:28;99527.50;;;21.19;43.28
68859;BME280;55864;49.238;8.092;2023-06-01T06:52:31;99527.72;;;21.11;43.19
68859;BME280;55864;49.238;8.092;2023-06-01T06:54:32;99525.88;;;20.98;43.49
68859;BME280;55864;49.238;8.092;2023-06-01T06:56:33;99525.25;;;20.83;43.61
68859;BME280;55864;49.238;8.092;2023-06-01T06:58:33;99523.00;;;20.67;43.81
68859;BME280;55864;49.238;8.092;2023-06-01T07:00:33;99526.50;;;20.54;44.69
68859;BME280;55864;49.238;8.092;2023-06-01T07:02:34;99525.44;;;20.42;44.37
68859;BME280;55864;49.238;8.092;2023-06-01T07:04:34;99533.03;;;20.32;44.94
68859;BME280;55864;49.238;8.092;2023-06-01T07:06:34;99531.19;;;20.26;45.41
68859;BME280;55864;49.238;8.092;2023-06-01T07:08:35;99528.88;;;20.17;45.53
68859;BME280;55864;49.238;8.092;2023-06-01T07:10:36;99529.47;;;20.12;45.81
68859;BME280;55864;49.238;8.092;2023-06-01T07:12:37;99530.09;;;20.08;45.95
68859;BME280;55864;49.238;8.092;2023-06-01T07:14:37;99539.72;;;20.09;46.00
68859;BME280;55864;49.238;8.092;2023-06-01T07:16:37;99537.47;;;20.06;45.70
68859;BME280;55864;49.238;8.092;2023-06-01T07:18:38;99542.78;;;20.06;45.58
68859;BME280;55864;49.238;8.092;2023-06-01T07:20:38;99534.78;;;20.06;45.63
68859;BME280;55864;49.238;8.092;2023-06-01T07:22:38;99535.78;;;20.05;46.01
68859;BME280;55864;49.238;8.092;2023-06-01T07:24:39;99541.13;;;20.05;45.75
68859;BME280;55864;49.238;8.092;2023-06-01T07:26:40;99540.13;;;20.06;45.79
68859;BME280;55864;49.238;8.092;2023-06-01T07:28:41;99535.63;;;20.13;45.29
68859;BME280;55864;49.238;8.092;2023-06-01T07:30:41;99538.81;;;20.75;44.00
68859;BME280;55864;49.238;8.092;2023-06-01T07:32:41;99528.09;;;21.34;42.59
68859;BME280;55864;49.238;8.092;2023-06-01T07:34:42;99529.47;;;21.63;42.15
68859;BME280;55864;49.238;8.092;2023-06-01T07:36:42;99532.13;;;21.56;42.32
68859;BME280;55864;49.238;8.092;2023-06-01T07:38:42;99533.00;;;21.43;42.37
68859;BME280;55864;49.238;8.092;2023-06-01T07:40:43;99532.22;;;21.30;42.85
68859;BME280;55864;49.238;8.092;2023-06-01T07:42:44;99532.44;;;21.22;42.81
68859;BME280;55864;49.238;8.092;2023-06-01T07:44:45;99533.69;;;21.13;42.60
68859;BME280;55864;49.238;8.092;2023-06-01T07:46:45;99528.78;;;21.10;43.25
68859;BME280;55864;49.238;8.092;2023-06-01T07:48:46;99531.03;;;21.06;43.23
68859;BME280;55864;49.238;8.092;2023-06-01T07:50:46;99541.50;;;21.08;43.57
68859;BME280;55864;49.238;8.092;2023-06-01T07:52:46;99535.13;;;21.09;43.13
68859;BME280;55864;49.238;8.092;2023-06-01T07:54:47;99531.63;;;21.08;43.14
68859;BME280;55864;49.238;8.092;2023-06-01T07:56:47;99531.63;;;21.08;42.79
68859;BME280;55864;49.238;8.092;2023-06-01T07:58:49;99536.97;;;21.08;43.07
68859;BME280;55864;49.238;8.092;2023-06-01T08:00:49;99530.41;;;21.11;43.08
68859;BME280;55864;49.238;8.092;2023-06-01T08:02:49;99528.34;;;21.13;43.36
68859;BME280;55864;49.238;8.092;2023-06-01T08:04:50;99526.28;;;21.15;44.01
68859;BME280;55864;49.238;8.092;2023-06-01T08:06:50;99528.13;;;21.21;43.53
68859;BME280;55864;49.238;8.092;2023-06-01T08:08:50;99520.50;;;21.24;42.46
68859;BME280;55864;49.238;8.092;2023-06-01T08:10:51;99520.66;;;21.56;42.14
68859;BME280;55864;49.238;8.092;2023-06-01T08:12:51;99527.94;;;22.24;40.86
68859;BME280;55864;49.238;8.092;2023-06-01T08:14:53;99523.38;;;22.31;40.83
68859;BME280;55864;49.238;8.092;2023-06-01T08:16:53;99520.91;;;22.29;41.06
68859;BME280;55864;49.238;8.092;2023-06-01T08:18:53;99521.13;;;22.28;41.64
68859;BME280;55864;49.238;8.092;2023-06-01T08:20:54;99518.88;;;22.25;40.51
68859;BME280;55864;49.238;8.092;2023-06-01T08:22:54;99516.06;;;22.20;40.80
68859;BME280;55864;49.238;8.092;2023-06-01T08:24:54;99518.50;;;22.21;40.55
68859;BME280;55864;49.238;8.092;2023-06-01T08:26:55;99511.50;;;22.20;40.70
68859;BME280;55864;49.238;8.092;2023-06-01T08:28:55;99519.09;;;22.23;40.92
68859;BME280;55864;49.238;8.092;2023-06-01T08:30:57;99511.88;;;22.24;40.77
68859;BME280;55864;49.238;8.092;2023-06-01T08:32:57;99517.03;;;22.25;40.10
68859;BME280;55864;49.238;8.092;2023-06-01T08:34:58;99512.22;;;22.34;40.18
68859;BME280;55864;49.238;8.092;2023-06-01T08:36:58;99521.31;;;22.33;39.75
68859;BME280;55864;49.238;8.092;2023-06-01T08:38:58;99512.47;;;22.32;39.13
68859;BME280;55864;49.238;8.092;2023-06-01T08:40:59;99506.66;;;22.35;39.69
68859;BME280;55864;49.238;8.092;2023-06-01T08:43:07;99508.91;;;22.38;39.58
68859;BME280;55864;49.238;8.092;2023-06-01T08:45:09;99510.53;;;22.39;39.67
68859;BME280;55864;49.238;8.092;2023-06-01T08:47:12;99516.88;;;22.45;39.78
68859;BME280;55864;49.238;8.092;2023-06-01T08:49:12;99512.44;;;22.88;38.80
68859;BME280;55864;49.238;8.092;2023-06-01T08:51:14;99516.47;;;23.22;38.18
68859;BME280;55864;49.238;8.092;2023-06-01T08:53:15;99506.84;;;23.39;37.25
68859;BME280;55864;49.238;8.092;2023-06-01T08:55:17;99514.47;;;23.35;37.90
68859;BME280;55864;49.238;8.092;2023-06-01T08:57:18;99509.94;;;23.36;38.19
68859;BME280;55864;49.238;8.092;2023-06-01T08:59:18;99513.31;;;23.31;38.77
68859;BME280;55864;49.238;8.092;2023-06-01T09:01:19;99512.50;;;23.24;38.64
68859;BME280;55864;49.238;8.092;2023-06-01T09:03:21;99505.81;;;23.15;38.58
68859;BME280;55864;49.238;8.092;2023-06-01T09:05:21;99506.25;;;23.12;39.26
68859;BME280;55864;49.238;8.092;2023-06-01T09:07:22;99506.84;;;23.14;39.00
68859;BME280;55864;49.238;8.092;2023-06-01T09:09:22;99507.22;;;23.18;39.13
68859;BME280;55864;49.238;8.092;2023-06-01T09:11:22;99508.19;;;23.23;38.90
68859;BME280;55864;49.238;8.092;2023-06-01T09:13:32;99505.66;;;23.28;39.41
68859;BME280;55864;49.238;8.092;2023-06-01T09:15:33;99508.47;;;23.40;38.65
68859;BME280;55864;49.238;8.092;2023-06-01T09:17:33;99500.94;;;23.49;39.25
68859;BME280;55864;49.238;8.092;2023-06-01T09:19:41;99490.13;;;23.55;39.04
68859;BME280;55864;49.238;8.092;2023-06-01T09:21:55;99501.06;;;23.72;38.83
68859;BME280;55864;49.238;8.092;2023-06-01T09:23:55;99499.16;;;24.08;37.74
68859;BME280;55864;49.238;8.092;2023-06-01T09:26:05;99496.06;;;24.23;37.18
68859;BME280;55864;49.238;8.092;2023-06-01T09:28:05;99493.38;;;24.23;36.82
68859;BME280;55864;49.238;8.092;2023-06-01T09:30:06;99493.84;;;24.20;37.10
68859;BME280;55864;49.238;8.092;2023-06-01T09:32:07;99490.69;;;24.23;37.42
68859;BME280;55864;49.238;8.092;2023-06-01T09:34:07;99493.00;;;24.19;37.12
68859;BME280;55864;49.238;8.092;2023-06-01T09:36:09;99491.59;;;24.17;36.68
68859;BME280;55864;49.238;8.092;2023-06-01T09:38:23;99491.81;;;24.15;36.77
68859;BME280;55864;49.238;8.092;2023-06-01T09:40:24;99489.13;;;24.15;36.36
68859;BME280;55864;49.238;8.092;2023-06-01T09:42:30;99491.75;;;24.22;36.94
68859;BME280;55864;49.238;8.092;2023-06-01T09:44:31;99493.38;;;24.23;36.77
68859;BME280;55864;49.238;8.092;2023-06-01T09:46:32;99495.03;;;24.24;35.96
68859;BME280;55864;49.238;8.092;2023-06-01T09:48:32;99488.34;;;24.26;35.88
68859;BME280;55864;49.238;8.092;2023-06-01T09:50:33;99482.78;;;24.28;35.41
68859;BME280;55864;49.238;8.092;2023-06-01T09:52:35;99485.47;;;24.28;35.88
68859;BME280;55864;49.238;8.092;2023-06-01T09:54:37;99486.88;;;24.42;34.92
68859;BME280;55864;49.238;8.092;2023-06-01T09:56:42;99474.53;;;24.64;32.32
68859;BME280;55864;49.238;8.092;2023-06-01T09:58:42;99472.34;;;24.73;33.77
68859;BME280;55864;49.238;8.092;2023-06-01T10:00:43;99475.88;;;24.73;33.38
68859;BME280;55864;49.238;8.092;2023-06-01T10:02:43;99470.25;;;24.75;33.91
68859;BME280;55864;49.238;8.092;2023-06-01T10:04:44;99468.03;;;24.83;33.21
68859;BME280;55864;49.238;8.092;2023-06-01T10:06:45;99476.09;;;24.83;32.22
68859;BME280;55864;49.238;8.092;2023-06-01T10:08:47;99477.97;;;24.83;33.09
68859;BME280;55864;49.238;8.092;2023-06-01T10:10:48;99470.72;;;24.83;33.68
68859;BME280;55864;49.238;8.092;2023-06-01T10:12:49;99479.38;;;24.85;33.26
68859;BME280;55864;49.238;8.092;2023-06-01T10:14:49;99475.75;;;24.91;31.52
68859;BME280;55864;49.238;8.092;2023-06-01T10:16:50;99470.25;;;24.98;31.97
68859;BME280;55864;49.238;8.092;2023-06-01T10:18:51;99479.72;;;25.00;31.23
68859;BME280;55864;49.238;8.092;2023-06-01T10:20:51;99467.09;;;25.01;29.66
68859;BME280;55864;49.238;8.092;2023-06-01T10:22:52;99466.25;;;25.12;29.23
68859;BME280;55864;49.238;8.092;2023-06-01T10:24:55;99459.94;;;25.30;30.32
68859;BME280;55864;49.238;8.092;2023-06-01T10:26:58;99462.03;;;25.39;30.27
68859;BME280;55864;49.238;8.092;2023-06-01T10:29:01;99455.38;;;25.42;30.83
68859;BME280;55864;49.238;8.092;2023-06-01T10:33:28;99451.13;;;25.46;31.50
68859;BME280;55864;49.238;8.092;2023-06-01T10:35:51;99446.25;;;25.43;30.24
68859;BME280;55864;49.238;8.092;2023-06-01T10:40:17;99456.50;;;25.46;30.58
68859;BME280;55864;49.238;8.092;2023-06-01T10:42:35;99452.78;;;25.47;31.41
68859;BME280;55864;49.238;8.092;2023-06-01T10:44:44;99444.81;;;25.52;31.12
68859;BME280;55864;49.238;8.092;2023-06-01T10:46:45;99450.31;;;25.57;30.90
68859;BME280;55864;49.238;8.092;2023-06-01T10:48:52;99447.13;;;25.60;30.75